PWSweather.com
Personal Weather Stations
Station Observations
KMOCREVE3
Whispering Hills, Creve Coeur, MO 63146

Whispering HillsCreve Coeur, MO 63146

Lat: 38.68, Lon: -90.463

Elevation: 530

Station Type: Vantage Vue

Latest ConditionsUpdated 4:40:01 AM CDT Sunday, Apr 26, 2015
Currently Today's Max Today's Min Today's Average
Temperature 47.9°F8.8°C 49.7°F9.8°C 47.6°F8.7°C 48.3°F9.1°C
Dew Point 44.5°F6.9°C 47.5°F8.6°C 44.2°F6.8°C 45.5°F7.5°C
Winds 1.0 mph WNW1.6 kmh WNW 2.0 mph NW3.2 kmh NW - 1.1 mph 1.8 kmh
Wind Gusts 3.0 mph4.8 kmh 7.0 mph11.3 kmh - -
Humidity 88% 92% 87% 90%
Pressure 29.83 in1010.2 mb 29.83 in1010.2 mb 29.75 in1007.5 mb -
Hour Temp Dew Point Humidity Winds Wind Gusts Pressure Precip Precip Rate Daily Precip Total
04:40 AM 47.9°F8.8°C 44.5°F6.9°C 88% 1.0 mph WNW1.6 kmh WNW 3.0 mph4.8 kmh 29.83 in1010.2 mb 0.00 in0.0 mm 0.00 in0.0 mm 0.00 in0.0 mm
04:30 AM 47.9°F8.8°C 44.5°F6.9°C 88% 1.0 mph NW1.6 kmh NW 3.0 mph4.8 kmh 29.83 in1010.2 mb 0.00 in0.0 mm 0.00 in0.0 mm 0.00 in0.0 mm
04:20 AM 47.9°F8.8°C 44.5°F6.9°C 88% Calm Calm 5.0 mph8.0 kmh 29.83 in1010.2 mb 0.00 in0.0 mm 0.00 in0.0 mm 0.00 in0.0 mm
04:10 AM 47.9°F8.8°C 44.2°F6.8°C 87% 1.0 mph NW1.6 kmh NW 2.0 mph3.2 kmh 29.82 in1009.8 mb 0.00 in0.0 mm 0.00 in0.0 mm 0.00 in0.0 mm
04:00 AM 47.9°F8.8°C 44.5°F6.9°C 88% 1.0 mph NW1.6 kmh NW 4.0 mph6.4 kmh 29.82 in1009.8 mb 0.00 in0.0 mm 0.00 in0.0 mm 0.00 in0.0 mm
03:50 AM 47.9°F8.8°C 44.5°F6.9°C 88% 1.0 mph NW1.6 kmh NW 4.0 mph6.4 kmh 29.82 in1009.8 mb 0.00 in0.0 mm 0.00 in0.0 mm 0.00 in0.0 mm
03:40 AM 47.8°F8.8°C 44.4°F6.9°C 88% 1.0 mph NW1.6 kmh NW 4.0 mph6.4 kmh 29.81 in1009.5 mb 0.00 in0.0 mm 0.00 in0.0 mm 0.00 in0.0 mm
03:30 AM 47.7°F8.7°C 44.6°F7.0°C 89% 1.0 mph NW1.6 kmh NW 4.0 mph6.4 kmh 29.82 in1009.8 mb 0.00 in0.0 mm 0.00 in0.0 mm 0.00 in0.0 mm
03:20 AM 47.7°F8.7°C 44.6°F7.0°C 89% 1.0 mph NW1.6 kmh NW 4.0 mph6.4 kmh 29.81 in1009.5 mb 0.00 in0.0 mm 0.00 in0.0 mm 0.00 in0.0 mm
03:10 AM 47.6°F8.7°C 44.8°F7.1°C 90% 1.0 mph NW1.6 kmh NW 4.0 mph6.4 kmh 29.80 in1009.1 mb 0.00 in0.0 mm 0.00 in0.0 mm 0.00 in0.0 mm
03:00 AM 47.6°F8.7°C 45.1°F7.3°C 91% 2.0 mph NW3.2 kmh NW 3.0 mph4.8 kmh 29.80 in1009.1 mb 0.00 in0.0 mm 0.00 in0.0 mm 0.00 in0.0 mm
02:50 AM 47.6°F8.7°C 45.1°F7.3°C 91% 1.0 mph NW1.6 kmh NW 7.0 mph11.3 kmh 29.80 in1009.1 mb 0.00 in0.0 mm 0.00 in0.0 mm 0.00 in0.0 mm
02:40 AM 47.6°F8.7°C 45.4°F7.4°C 92% 1.0 mph NW1.6 kmh NW 4.0 mph6.4 kmh 29.80 in1009.1 mb 0.00 in0.0 mm 0.00 in0.0 mm 0.00 in0.0 mm
02:30 AM 47.7°F8.7°C 45.2°F7.3°C 91% 1.0 mph NW1.6 kmh NW 3.0 mph4.8 kmh 29.79 in1008.8 mb 0.00 in0.0 mm 0.00 in0.0 mm 0.00 in0.0 mm
02:20 AM 47.9°F8.8°C 45.4°F7.4°C 91% 1.0 mph NW1.6 kmh NW 5.0 mph8.0 kmh 29.79 in1008.8 mb 0.00 in0.0 mm 0.00 in0.0 mm 0.00 in0.0 mm
02:10 AM 48.3°F9.1°C 45.5°F7.5°C 90% 1.0 mph NW1.6 kmh NW 3.0 mph4.8 kmh 29.79 in1008.8 mb 0.00 in0.0 mm 0.00 in0.0 mm 0.00 in0.0 mm
02:00 AM 48.4°F9.1°C 45.3°F7.4°C 89% 1.0 mph NW1.6 kmh NW 4.0 mph6.4 kmh 29.80 in1009.1 mb 0.00 in0.0 mm 0.00 in0.0 mm 0.00 in0.0 mm
01:50 AM 48.5°F9.2°C 45.4°F7.4°C 89% 2.0 mph NW3.2 kmh NW 5.0 mph8.0 kmh 29.80 in1009.1 mb 0.00 in0.0 mm 0.00 in0.0 mm 0.00 in0.0 mm
01:40 AM 48.5°F9.2°C 45.7°F7.6°C 90% 1.0 mph NW1.6 kmh NW 4.0 mph6.4 kmh 29.79 in1008.8 mb 0.00 in0.0 mm 0.00 in0.0 mm 0.00 in0.0 mm
01:30 AM 48.5°F9.2°C 46.0°F7.8°C 91% 1.0 mph NW1.6 kmh NW 3.0 mph4.8 kmh 29.79 in1008.8 mb 0.00 in0.0 mm 0.00 in0.0 mm 0.00 in0.0 mm
01:20 AM 48.6°F9.2°C 46.1°F7.8°C 91% 1.0 mph NW1.6 kmh NW 3.0 mph4.8 kmh 29.78 in1008.5 mb 0.00 in0.0 mm 0.00 in0.0 mm 0.00 in0.0 mm
01:10 AM 48.8°F9.3°C 46.3°F7.9°C 91% 1.0 mph WNW1.6 kmh WNW 4.0 mph6.4 kmh 29.78 in1008.5 mb 0.00 in0.0 mm 0.00 in0.0 mm 0.00 in0.0 mm
01:00 AM 48.8°F9.3°C 46.3°F7.9°C 91% 1.0 mph NW1.6 kmh NW 2.0 mph3.2 kmh 29.78 in1008.5 mb 0.00 in0.0 mm 0.00 in0.0 mm 0.00 in0.0 mm
12:50 AM 48.8°F9.3°C 46.3°F7.9°C 91% 1.0 mph NW1.6 kmh NW 4.0 mph6.4 kmh 29.78 in1008.5 mb 0.00 in0.0 mm 0.00 in0.0 mm 0.00 in0.0 mm
12:40 AM 48.9°F9.4°C 46.7°F8.2°C 92% 1.0 mph NW1.6 kmh NW 3.0 mph4.8 kmh 29.77 in1008.1 mb 0.00 in0.0 mm 0.00 in0.0 mm 0.00 in0.0 mm
12:30 AM 49.1°F9.5°C 46.9°F8.3°C 92% 1.0 mph NW1.6 kmh NW 5.0 mph8.0 kmh 29.77 in1008.1 mb 0.00 in0.0 mm 0.00 in0.0 mm 0.00 in0.0 mm
12:20 AM 49.3°F9.6°C 47.1°F8.4°C 92% 2.0 mph NW3.2 kmh NW 5.0 mph8.0 kmh 29.76 in1007.8 mb 0.00 in0.0 mm 0.00 in0.0 mm 0.00 in0.0 mm
12:10 AM 49.7°F9.8°C 47.2°F8.4°C 91% 1.0 mph NW1.6 kmh NW 3.0 mph4.8 kmh 29.76 in1007.8 mb 0.00 in0.0 mm 0.00 in0.0 mm 0.00 in0.0 mm
12:00 AM 49.7°F9.8°C 47.5°F8.6°C 92% 1.0 mph NW1.6 kmh NW 4.0 mph6.4 kmh 29.75 in1007.5 mb 0.00 in0.0 mm 0.00 in0.0 mm 0.00 in0.0 mm